sensor_id;sensor_type;location;lat;lon;timestamp;P1;durP1;ratioP1;P2;durP2;ratioP2
43008;SDS011;28634;45.454;11.106;2022-09-09T00:00:28;7.15;;;4.15;;
43008;SDS011;28634;45.454;11.106;2022-09-09T00:03:47;7.90;;;4.50;;
43008;SDS011;28634;45.454;11.106;2022-09-09T00:05:59;6.22;;;4.32;;
43008;SDS011;28634;45.454;11.106;2022-09-09T00:17:31;5.88;;;3.60;;
43008;SDS011;28634;45.454;11.106;2022-09-09T00:20:16;5.70;;;4.20;;
43008;SDS011;28634;45.454;11.106;2022-09-09T00:22:57;7.40;;;3.90;;
43008;SDS011;28634;45.454;11.106;2022-09-09T00:28:19;6.68;;;3.50;;
43008;SDS011;28634;45.454;11.106;2022-09-09T00:30:48;6.32;;;3.60;;
43008;SDS011;28634;45.454;11.106;2022-09-09T00:33:19;6.25;;;3.72;;
43008;SDS011;28634;45.454;11.106;2022-09-09T00:35:51;7.72;;;3.75;;
43008;SDS011;28634;45.454;11.106;2022-09-09T00:41:00;6.65;;;3.65;;
43008;SDS011;28634;45.454;11.106;2022-09-09T00:43:56;5.65;;;3.40;;
43008;SDS011;28634;45.454;11.106;2022-09-09T00:46:40;6.18;;;3.45;;
43008;SDS011;28634;45.454;11.106;2022-09-09T00:50:00;5.78;;;3.55;;
43008;SDS011;28634;45.454;11.106;2022-09-09T00:55:13;6.20;;;3.45;;
43008;SDS011;28634;45.454;11.106;2022-09-09T01:00:23;5.18;;;3.45;;
43008;SDS011;28634;45.454;11.106;2022-09-09T01:08:21;4.60;;;2.88;;
43008;SDS011;28634;45.454;11.106;2022-09-09T01:10:54;5.20;;;3.30;;
43008;SDS011;28634;45.454;11.106;2022-09-09T01:13:28;6.22;;;3.80;;
43008;SDS011;28634;45.454;11.106;2022-09-09T01:15:57;6.72;;;3.42;;
43008;SDS011;28634;45.454;11.106;2022-09-09T01:18:28;4.72;;;3.30;;
43008;SDS011;28634;45.454;11.106;2022-09-09T01:21:09;6.95;;;3.78;;
43008;SDS011;28634;45.454;11.106;2022-09-09T01:23:56;7.60;;;4.00;;
43008;SDS011;28634;45.454;11.106;2022-09-09T01:26:36;6.25;;;3.80;;
43008;SDS011;28634;45.454;11.106;2022-09-09T01:29:12;6.72;;;3.28;;
43008;SDS011;28634;45.454;11.106;2022-09-09T01:32:35;6.85;;;3.22;;
43008;SDS011;28634;45.454;11.106;2022-09-09T01:34:49;5.10;;;3.20;;
43008;SDS011;28634;45.454;11.106;2022-09-09T01:37:17;6.07;;;3.30;;
43008;SDS011;28634;45.454;11.106;2022-09-09T01:39:44;6.45;;;3.50;;
43008;SDS011;28634;45.454;11.106;2022-09-09T01:42:13;6.95;;;2.92;;
43008;SDS011;28634;45.454;11.106;2022-09-09T01:44:42;6.63;;;3.28;;
43008;SDS011;28634;45.454;11.106;2022-09-09T01:47:09;5.22;;;3.00;;
43008;SDS011;28634;45.454;11.106;2022-09-09T01:49:36;6.10;;;2.97;;
43008;SDS011;28634;45.454;11.106;2022-09-09T01:52:04;4.95;;;3.03;;
43008;SDS011;28634;45.454;11.106;2022-09-09T01:54:32;3.80;;;2.92;;
43008;SDS011;28634;45.454;11.106;2022-09-09T02:02:18;7.28;;;3.10;;
43008;SDS011;28634;45.454;11.106;2022-09-09T02:07:42;4.95;;;2.80;;
43008;SDS011;28634;45.454;11.106;2022-09-09T02:10:18;7.18;;;2.85;;
43008;SDS011;28634;45.454;11.106;2022-09-09T02:13:19;5.43;;;2.97;;
43008;SDS011;28634;45.454;11.106;2022-09-09T02:21:14;7.10;;;2.90;;
43008;SDS011;28634;45.454;11.106;2022-09-09T02:23:44;6.90;;;2.80;;
43008;SDS011;28634;45.454;11.106;2022-09-09T02:26:14;6.30;;;2.97;;
43008;SDS011;28634;45.454;11.106;2022-09-09T02:28:50;5.35;;;3.15;;
43008;SDS011;28634;45.454;11.106;2022-09-09T02:31:21;6.13;;;3.00;;
43008;SDS011;28634;45.454;11.106;2022-09-09T02:33:59;6.63;;;2.88;;
43008;SDS011;28634;45.454;11.106;2022-09-09T02:36:30;6.80;;;3.10;;
43008;SDS011;28634;45.454;11.106;2022-09-09T02:39:00;7.63;;;3.72;;
43008;SDS011;28634;45.454;11.106;2022-09-09T02:41:28;5.85;;;2.75;;
43008;SDS011;28634;45.454;11.106;2022-09-09T02:44:04;7.63;;;3.05;;
43008;SDS011;28634;45.454;11.106;2022-09-09T02:52:16;5.95;;;2.92;;
43008;SDS011;28634;45.454;11.106;2022-09-09T02:54:47;7.85;;;2.80;;
43008;SDS011;28634;45.454;11.106;2022-09-09T02:57:36;7.50;;;3.10;;
43008;SDS011;28634;45.454;11.106;2022-09-09T03:00:05;5.15;;;2.90;;
43008;SDS011;28634;45.454;11.106;2022-09-09T03:02:33;6.90;;;3.20;;
43008;SDS011;28634;45.454;11.106;2022-09-09T03:05:00;7.15;;;3.13;;
43008;SDS011;28634;45.454;11.106;2022-09-09T03:07:27;5.57;;;3.10;;
43008;SDS011;28634;45.454;11.106;2022-09-09T03:09:54;7.32;;;2.90;;
43008;SDS011;28634;45.454;11.106;2022-09-09T03:12:21;6.18;;;3.13;;
43008;SDS011;28634;45.454;11.106;2022-09-09T03:14:48;5.78;;;2.92;;
43008;SDS011;28634;45.454;11.106;2022-09-09T03:17:15;7.22;;;3.28;;
43008;SDS011;28634;45.454;11.106;2022-09-09T03:19:43;6.13;;;2.78;;
43008;SDS011;28634;45.454;11.106;2022-09-09T03:22:10;6.15;;;3.08;;
43008;SDS011;28634;45.454;11.106;2022-09-09T03:24:38;5.80;;;3.00;;
43008;SDS011;28634;45.454;11.106;2022-09-09T03:27:05;5.82;;;2.88;;
43008;SDS011;28634;45.454;11.106;2022-09-09T03:29:32;5.07;;;2.72;;
43008;SDS011;28634;45.454;11.106;2022-09-09T03:31:59;5.28;;;3.05;;
43008;SDS011;28634;45.454;11.106;2022-09-09T03:34:26;6.03;;;2.63;;
43008;SDS011;28634;45.454;11.106;2022-09-09T03:36:53;6.70;;;2.90;;
43008;SDS011;28634;45.454;11.106;2022-09-09T03:39:20;5.53;;;2.83;;
43008;SDS011;28634;45.454;11.106;2022-09-09T03:41:47;7.65;;;3.05;;
43008;SDS011;28634;45.454;11.106;2022-09-09T03:44:14;5.65;;;2.90;;
43008;SDS011;28634;45.454;11.106;2022-09-09T03:46:41;4.88;;;3.03;;
43008;SDS011;28634;45.454;11.106;2022-09-09T03:49:09;4.78;;;2.88;;
43008;SDS011;28634;45.454;11.106;2022-09-09T03:51:36;5.10;;;2.65;;
43008;SDS011;28634;45.454;11.106;2022-09-09T03:54:04;5.10;;;2.78;;
43008;SDS011;28634;45.454;11.106;2022-09-09T03:56:34;5.97;;;2.97;;
43008;SDS011;28634;45.454;11.106;2022-09-09T03:59:02;3.90;;;2.70;;
43008;SDS011;28634;45.454;11.106;2022-09-09T04:01:30;5.88;;;2.85;;
43008;SDS011;28634;45.454;11.106;2022-09-09T04:03:57;6.85;;;3.50;;
43008;SDS011;28634;45.454;11.106;2022-09-09T04:06:24;7.10;;;3.15;;
43008;SDS011;28634;45.454;11.106;2022-09-09T04:08:52;4.93;;;3.13;;
43008;SDS011;28634;45.454;11.106;2022-09-09T04:11:19;5.72;;;3.13;;
43008;SDS011;28634;45.454;11.106;2022-09-09T04:13:46;6.00;;;2.85;;
43008;SDS011;28634;45.454;11.106;2022-09-09T04:16:13;4.07;;;2.90;;
43008;SDS011;28634;45.454;11.106;2022-09-09T04:18:41;5.32;;;2.85;;
43008;SDS011;28634;45.454;11.106;2022-09-09T04:21:09;8.90;;;3.30;;
43008;SDS011;28634;45.454;11.106;2022-09-09T04:23:38;5.38;;;2.83;;
43008;SDS011;28634;45.454;11.106;2022-09-09T04:26:06;6.70;;;3.42;;
43008;SDS011;28634;45.454;11.106;2022-09-09T04:28:34;6.60;;;3.03;;
43008;SDS011;28634;45.454;11.106;2022-09-09T04:31:21;5.75;;;3.05;;
43008;SDS011;28634;45.454;11.106;2022-09-09T04:33:51;9.52;;;3.63;;
43008;SDS011;28634;45.454;11.106;2022-09-09T04:36:18;6.03;;;2.88;;
43008;SDS011;28634;45.454;11.106;2022-09-09T04:38:46;5.95;;;3.50;;
43008;SDS011;28634;45.454;11.106;2022-09-09T04:41:15;8.98;;;2.92;;
43008;SDS011;28634;45.454;11.106;2022-09-09T04:43:42;6.78;;;3.33;;
43008;SDS011;28634;45.454;11.106;2022-09-09T04:46:10;7.93;;;3.08;;
43008;SDS011;28634;45.454;11.106;2022-09-09T04:48:37;5.32;;;3.10;;
43008;SDS011;28634;45.454;11.106;2022-09-09T04:51:04;8.85;;;3.75;;
43008;SDS011;28634;45.454;11.106;2022-09-09T04:53:33;6.65;;;3.40;;
43008;SDS011;28634;45.454;11.106;2022-09-09T04:56:21;8.10;;;3.63;;
43008;SDS011;28634;45.454;11.106;2022-09-09T04:58:48;7.10;;;3.25;;
43008;SDS011;28634;45.454;11.106;2022-09-09T05:01:16;6.90;;;3.10;;
43008;SDS011;28634;45.454;11.106;2022-09-09T05:03:45;6.95;;;3.13;;
43008;SDS011;28634;45.454;11.106;2022-09-09T05:06:16;5.85;;;3.08;;
43008;SDS011;28634;45.454;11.106;2022-09-09T05:08:45;7.40;;;3.30;;
43008;SDS011;28634;45.454;11.106;2022-09-09T05:11:22;7.03;;;3.30;;
43008;SDS011;28634;45.454;11.106;2022-09-09T05:13:52;6.95;;;3.45;;
43008;SDS011;28634;45.454;11.106;2022-09-09T05:16:20;5.45;;;3.30;;
43008;SDS011;28634;45.454;11.106;2022-09-09T05:18:49;9.27;;;4.03;;
43008;SDS011;28634;45.454;11.106;2022-09-09T05:21:20;6.68;;;3.28;;
43008;SDS011;28634;45.454;11.106;2022-09-09T05:23:49;8.18;;;3.28;;
43008;SDS011;28634;45.454;11.106;2022-09-09T05:26:18;8.68;;;3.65;;
43008;SDS011;28634;45.454;11.106;2022-09-09T05:28:47;7.72;;;3.40;;
43008;SDS011;28634;45.454;11.106;2022-09-09T05:31:15;7.55;;;3.53;;
43008;SDS011;28634;45.454;11.106;2022-09-09T05:33:44;7.07;;;3.40;;
43008;SDS011;28634;45.454;11.106;2022-09-09T05:36:13;8.80;;;3.53;;
43008;SDS011;28634;45.454;11.106;2022-09-09T05:38:42;10.20;;;3.38;;
43008;SDS011;28634;45.454;11.106;2022-09-09T05:41:10;9.77;;;4.38;;
43008;SDS011;28634;45.454;11.106;2022-09-09T05:43:37;9.07;;;3.92;;
43008;SDS011;28634;45.454;11.106;2022-09-09T05:46:06;13.43;;;3.78;;
43008;SDS011;28634;45.454;11.106;2022-09-09T05:48:41;8.77;;;4.13;;
43008;SDS011;28634;45.454;11.106;2022-09-09T05:51:10;9.00;;;3.92;;
43008;SDS011;28634;45.454;11.106;2022-09-09T05:53:38;8.43;;;3.58;;
43008;SDS011;28634;45.454;11.106;2022-09-09T05:56:07;8.27;;;3.72;;
43008;SDS011;28634;45.454;11.106;2022-09-09T05:58:40;26.03;;;8.40;;
43008;SDS011;28634;45.454;11.106;2022-09-09T06:01:16;16.33;;;3.75;;
43008;SDS011;28634;45.454;11.106;2022-09-09T06:03:49;6.35;;;3.85;;
43008;SDS011;28634;45.454;11.106;2022-09-09T06:06:18;8.07;;;3.53;;
43008;SDS011;28634;45.454;11.106;2022-09-09T06:08:48;20.58;;;3.75;;
43008;SDS011;28634;45.454;11.106;2022-09-09T06:11:18;32.03;;;5.28;;
43008;SDS011;28634;45.454;11.106;2022-09-09T06:13:50;12.90;;;4.10;;
43008;SDS011;28634;45.454;11.106;2022-09-09T06:16:22;9.10;;;2.97;;
43008;SDS011;28634;45.454;11.106;2022-09-09T06:18:51;9.30;;;3.33;;
43008;SDS011;28634;45.454;11.106;2022-09-09T06:21:23;8.13;;;2.80;;
43008;SDS011;28634;45.454;11.106;2022-09-09T06:23:51;5.25;;;2.50;;
43008;SDS011;28634;45.454;11.106;2022-09-09T06:26:29;6.00;;;2.67;;
43008;SDS011;28634;45.454;11.106;2022-09-09T06:28:59;7.60;;;3.00;;
43008;SDS011;28634;45.454;11.106;2022-09-09T06:31:28;7.40;;;2.65;;
43008;SDS011;28634;45.454;11.106;2022-09-09T06:33:57;6.00;;;2.80;;
43008;SDS011;28634;45.454;11.106;2022-09-09T06:36:26;7.40;;;2.80;;
43008;SDS011;28634;45.454;11.106;2022-09-09T06:38:57;5.20;;;2.35;;
43008;SDS011;28634;45.454;11.106;2022-09-09T06:41:29;5.30;;;2.55;;
43008;SDS011;28634;45.454;11.106;2022-09-09T06:43:59;4.18;;;2.20;;
43008;SDS011;28634;45.454;11.106;2022-09-09T06:46:28;4.88;;;2.40;;
43008;SDS011;28634;45.454;11.106;2022-09-09T06:48:57;6.22;;;2.80;;
43008;SDS011;28634;45.454;11.106;2022-09-09T06:51:27;8.18;;;2.95;;
43008;SDS011;28634;45.454;11.106;2022-09-09T06:53:59;4.82;;;2.60;;
43008;SDS011;28634;45.454;11.106;2022-09-09T06:56:32;6.43;;;2.30;;
43008;SDS011;28634;45.454;11.106;2022-09-09T06:59:04;6.50;;;2.58;;
43008;SDS011;28634;45.454;11.106;2022-09-09T07:01:33;5.85;;;2.35;;
43008;SDS011;28634;45.454;11.106;2022-09-09T07:04:02;5.90;;;2.85;;
43008;SDS011;28634;45.454;11.106;2022-09-09T07:06:31;6.55;;;2.50;;
43008;SDS011;28634;45.454;11.106;2022-09-09T07:09:01;8.05;;;2.80;;
43008;SDS011;28634;45.454;11.106;2022-09-09T07:11:34;5.18;;;2.53;;
43008;SDS011;28634;45.454;11.106;2022-09-09T07:14:08;5.15;;;2.60;;
43008;SDS011;28634;45.454;11.106;2022-09-09T07:16:35;5.82;;;2.70;;
43008;SDS011;28634;45.454;11.106;2022-09-09T07:19:03;6.22;;;3.00;;
43008;SDS011;28634;45.454;11.106;2022-09-09T07:21:31;5.18;;;2.60;;
43008;SDS011;28634;45.454;11.106;2022-09-09T07:23:59;6.47;;;2.85;;
43008;SDS011;28634;45.454;11.106;2022-09-09T07:26:27;5.32;;;2.60;;
43008;SDS011;28634;45.454;11.106;2022-09-09T07:28:56;7.65;;;3.00;;
43008;SDS011;28634;45.454;11.106;2022-09-09T07:33:52;6.38;;;3.10;;
43008;SDS011;28634;45.454;11.106;2022-09-09T07:36:24;7.53;;;3.40;;
43008;SDS011;28634;45.454;11.106;2022-09-09T07:38:59;9.32;;;3.80;;
43008;SDS011;28634;45.454;11.106;2022-09-09T07:41:29;6.50;;;3.45;;
43008;SDS011;28634;45.454;11.106;2022-09-09T07:44:07;7.95;;;3.25;;
43008;SDS011;28634;45.454;11.106;2022-09-09T07:46:37;4.90;;;3.15;;
43008;SDS011;28634;45.454;11.106;2022-09-09T07:49:08;7.15;;;3.10;;
43008;SDS011;28634;45.454;11.106;2022-09-09T07:51:37;9.27;;;3.22;;
43008;SDS011;28634;45.454;11.106;2022-09-09T07:54:06;7.22;;;2.83;;
43008;SDS011;28634;45.454;11.106;2022-09-09T07:56:35;5.93;;;3.20;;
43008;SDS011;28634;45.454;11.106;2022-09-09T07:59:05;7.28;;;2.88;;
43008;SDS011;28634;45.454;11.106;2022-09-09T08:01:34;6.13;;;3.30;;
43008;SDS011;28634;45.454;11.106;2022-09-09T08:04:09;8.75;;;3.70;;
43008;SDS011;28634;45.454;11.106;2022-09-09T08:06:43;6.97;;;3.20;;
43008;SDS011;28634;45.454;11.106;2022-09-09T08:09:12;11.43;;;3.72;;
43008;SDS011;28634;45.454;11.106;2022-09-09T08:11:40;6.63;;;3.30;;
43008;SDS011;28634;45.454;11.106;2022-09-09T08:14:08;6.63;;;3.40;;
43008;SDS011;28634;45.454;11.106;2022-09-09T08:16:39;8.18;;;3.20;;
43008;SDS011;28634;45.454;11.106;2022-09-09T08:19:08;6.43;;;3.00;;
43008;SDS011;28634;45.454;11.106;2022-09-09T08:21:37;7.55;;;3.13;;
43008;SDS011;28634;45.454;11.106;2022-09-09T08:24:07;7.65;;;3.60;;
43008;SDS011;28634;45.454;11.106;2022-09-09T08:26:40;7.45;;;3.40;;
43008;SDS011;28634;45.454;11.106;2022-09-09T08:29:10;11.00;;;3.80;;
43008;SDS011;28634;45.454;11.106;2022-09-09T08:31:40;8.10;;;3.80;;
43008;SDS011;28634;45.454;11.106;2022-09-09T08:34:21;6.13;;;3.30;;
43008;SDS011;28634;45.454;11.106;2022-09-09T08:36:49;7.95;;;3.67;;
43008;SDS011;28634;45.454;11.106;2022-09-09T08:39:17;8.32;;;3.25;;
43008;SDS011;28634;45.454;11.106;2022-09-09T08:41:50;7.38;;;3.03;;
43008;SDS011;28634;45.454;11.106;2022-09-09T08:47:42;9.38;;;3.40;;
43008;SDS011;28634;45.454;11.106;2022-09-09T08:58:09;9.60;;;3.40;;
43008;SDS011;28634;45.454;11.106;2022-09-09T09:03:59;6.57;;;3.50;;
43008;SDS011;28634;45.454;11.106;2022-09-09T09:06:55;8.13;;;3.40;;
43008;SDS011;28634;45.454;11.106;2022-09-09T09:09:53;6.70;;;3.28;;
43008;SDS011;28634;45.454;11.106;2022-09-09T09:12:41;10.32;;;3.58;;
43008;SDS011;28634;45.454;11.106;2022-09-09T09:15:11;8.60;;;3.85;;
43008;SDS011;28634;45.454;11.106;2022-09-09T09:17:49;8.40;;;3.22;;
43008;SDS011;28634;45.454;11.106;2022-09-09T09:20:17;8.35;;;3.08;;
43008;SDS011;28634;45.454;11.106;2022-09-09T09:23:09;7.75;;;3.17;;
43008;SDS011;28634;45.454;11.106;2022-09-09T09:25:45;7.68;;;3.50;;
43008;SDS011;28634;45.454;11.106;2022-09-09T09:28:15;5.97;;;3.15;;
43008;SDS011;28634;45.454;11.106;2022-09-09T09:31:03;5.82;;;2.88;;
43008;SDS011;28634;45.454;11.106;2022-09-09T09:36:09;6.03;;;3.35;;
43008;SDS011;28634;45.454;11.106;2022-09-09T09:38:36;6.95;;;3.33;;
43008;SDS011;28634;45.454;11.106;2022-09-09T09:41:31;5.78;;;3.25;;
43008;SDS011;28634;45.454;11.106;2022-09-09T09:44:03;8.15;;;3.92;;
43008;SDS011;28634;45.454;11.106;2022-09-09T09:46:31;7.28;;;3.30;;
43008;SDS011;28634;45.454;11.106;2022-09-09T09:48:59;7.80;;;3.15;;
43008;SDS011;28634;45.454;11.106;2022-09-09T09:51:28;8.95;;;4.07;;
43008;SDS011;28634;45.454;11.106;2022-09-09T09:54:33;8.30;;;4.00;;
43008;SDS011;28634;45.454;11.106;2022-09-09T09:56:54;7.95;;;3.53;;
43008;SDS011;28634;45.454;11.106;2022-09-09T10:02:21;9.27;;;3.20;;
43008;SDS011;28634;45.454;11.106;2022-09-09T10:07:30;5.88;;;2.90;;
43008;SDS011;28634;45.454;11.106;2022-09-09T10:09:59;7.47;;;3.35;;
43008;SDS011;28634;45.454;11.106;2022-09-09T10:12:33;9.32;;;3.60;;
43008;SDS011;28634;45.454;11.106;2022-09-09T10:20:45;6.63;;;2.47;;
43008;SDS011;28634;45.454;11.106;2022-09-09T10:29:10;7.55;;;2.90;;
43008;SDS011;28634;45.454;11.106;2022-09-09T10:37:45;5.88;;;2.60;;
43008;SDS011;28634;45.454;11.106;2022-09-09T10:40:43;6.82;;;2.45;;
43008;SDS011;28634;45.454;11.106;2022-09-09T10:46:23;5.90;;;2.50;;
43008;SDS011;28634;45.454;11.106;2022-09-09T10:54:38;4.45;;;1.98;;
43008;SDS011;28634;45.454;11.106;2022-09-09T10:57:46;3.67;;;1.70;;
43008;SDS011;28634;45.454;11.106;2022-09-09T11:00:17;4.72;;;2.05;;
43008;SDS011;28634;45.454;11.106;2022-09-09T11:02:51;3.67;;;2.00;;
43008;SDS011;28634;45.454;11.106;2022-09-09T11:05:35;5.38;;;2.30;;
43008;SDS011;28634;45.454;11.106;2022-09-09T11:08:41;4.13;;;2.30;;
43008;SDS011;28634;45.454;11.106;2022-09-09T11:11:02;4.15;;;2.05;;
43008;SDS011;28634;45.454;11.106;2022-09-09T11:22:24;4.03;;;1.60;;
43008;SDS011;28634;45.454;11.106;2022-09-09T11:24:57;3.70;;;1.58;;
43008;SDS011;28634;45.454;11.106;2022-09-09T11:39:15;3.78;;;1.40;;
43008;SDS011;28634;45.454;11.106;2022-09-09T11:41:51;3.17;;;1.40;;
43008;SDS011;28634;45.454;11.106;2022-09-09T11:44:36;2.25;;;1.35;;
43008;SDS011;28634;45.454;11.106;2022-09-09T11:47:03;2.25;;;1.30;;
43008;SDS011;28634;45.454;11.106;2022-09-09T11:49:52;3.20;;;1.83;;
43008;SDS011;28634;45.454;11.106;2022-09-09T11:52:24;2.05;;;1.27;;
43008;SDS011;28634;45.454;11.106;2022-09-09T11:55:24;3.20;;;1.30;;
43008;SDS011;28634;45.454;11.106;2022-09-09T12:00:40;2.28;;;1.00;;
43008;SDS011;28634;45.454;11.106;2022-09-09T12:06:24;3.00;;;1.20;;
43008;SDS011;28634;45.454;11.106;2022-09-09T12:12:35;1.85;;;1.00;;
43008;SDS011;28634;45.454;11.106;2022-09-09T12:17:46;2.35;;;1.20;;
43008;SDS011;28634;45.454;11.106;2022-09-09T12:28:37;1.65;;;0.98;;
43008;SDS011;28634;45.454;11.106;2022-09-09T12:31:14;2.22;;;1.20;;
43008;SDS011;28634;45.454;11.106;2022-09-09T12:33:48;2.08;;;1.10;;
43008;SDS011;28634;45.454;11.106;2022-09-09T12:36:26;2.28;;;1.05;;
43008;SDS011;28634;45.454;11.106;2022-09-09T12:38:57;1.90;;;0.90;;
43008;SDS011;28634;45.454;11.106;2022-09-09T12:41:37;1.02;;;0.60;;
43008;SDS011;28634;45.454;11.106;2022-09-09T12:44:04;2.75;;;0.90;;
43008;SDS011;28634;45.454;11.106;2022-09-09T12:46:37;1.35;;;0.85;;
43008;SDS011;28634;45.454;11.106;2022-09-09T12:52:13;2.03;;;1.00;;
43008;SDS011;28634;45.454;11.106;2022-09-09T12:54:43;1.83;;;0.95;;
43008;SDS011;28634;45.454;11.106;2022-09-09T12:57:14;1.30;;;0.85;;
43008;SDS011;28634;45.454;11.106;2022-09-09T12:59:42;1.77;;;0.98;;
43008;SDS011;28634;45.454;11.106;2022-09-09T13:02:21;1.50;;;0.80;;
43008;SDS011;28634;45.454;11.106;2022-09-09T13:07:17;3.38;;;1.10;;
43008;SDS011;28634;45.454;11.106;2022-09-09T13:09:46;2.20;;;0.90;;
43008;SDS011;28634;45.454;11.106;2022-09-09T13:12:16;3.47;;;1.10;;
43008;SDS011;28634;45.454;11.106;2022-09-09T13:14:49;1.17;;;0.80;;
43008;SDS011;28634;45.454;11.106;2022-09-09T13:17:21;2.25;;;1.00;;
43008;SDS011;28634;45.454;11.106;2022-09-09T13:19:50;2.13;;;1.10;;
43008;SDS011;28634;45.454;11.106;2022-09-09T13:22:33;2.55;;;1.10;;
43008;SDS011;28634;45.454;11.106;2022-09-09T13:27:32;1.75;;;1.00;;
43008;SDS011;28634;45.454;11.106;2022-09-09T13:30:20;3.20;;;1.20;;
43008;SDS011;28634;45.454;11.106;2022-09-09T13:35:29;2.95;;;1.15;;
43008;SDS011;28634;45.454;11.106;2022-09-09T13:37:56;3.55;;;1.55;;
43008;SDS011;28634;45.454;11.106;2022-09-09T13:40:24;2.65;;;1.48;;
43008;SDS011;28634;45.454;11.106;2022-09-09T13:42:52;2.97;;;1.60;;
43008;SDS011;28634;45.454;11.106;2022-09-09T13:45:23;2.03;;;1.33;;
43008;SDS011;28634;45.454;11.106;2022-09-09T13:47:54;3.15;;;1.45;;
43008;SDS011;28634;45.454;11.106;2022-09-09T13:50:23;3.80;;;1.33;;
43008;SDS011;28634;45.454;11.106;2022-09-09T13:52:59;3.85;;;1.35;;
43008;SDS011;28634;45.454;11.106;2022-09-09T13:55:27;4.28;;;1.52;;
43008;SDS011;28634;45.454;11.106;2022-09-09T13:57:56;3.53;;;1.52;;
43008;SDS011;28634;45.454;11.106;2022-09-09T14:00:29;2.65;;;1.33;;
43008;SDS011;28634;45.454;11.106;2022-09-09T14:02:58;2.45;;;1.40;;
43008;SDS011;28634;45.454;11.106;2022-09-09T14:05:27;3.85;;;1.60;;
43008;SDS011;28634;45.454;11.106;2022-09-09T14:07:58;2.35;;;1.20;;
43008;SDS011;28634;45.454;11.106;2022-09-09T14:10:26;2.78;;;1.30;;
43008;SDS011;28634;45.454;11.106;2022-09-09T14:12:54;2.78;;;1.30;;
43008;SDS011;28634;45.454;11.106;2022-09-09T14:15:21;2.92;;;1.35;;
43008;SDS011;28634;45.454;11.106;2022-09-09T14:17:48;2.35;;;1.30;;
43008;SDS011;28634;45.454;11.106;2022-09-09T14:20:15;2.03;;;1.20;;
43008;SDS011;28634;45.454;11.106;2022-09-09T14:22:44;4.97;;;1.42;;
43008;SDS011;28634;45.454;11.106;2022-09-09T14:25:12;6.15;;;1.50;;
43008;SDS011;28634;45.454;11.106;2022-09-09T14:27:44;1.85;;;1.10;;
43008;SDS011;28634;45.454;11.106;2022-09-09T14:30:12;2.25;;;1.30;;
43008;SDS011;28634;45.454;11.106;2022-09-09T14:32:39;2.80;;;1.40;;
43008;SDS011;28634;45.454;11.106;2022-09-09T14:35:06;3.90;;;1.50;;
43008;SDS011;28634;45.454;11.106;2022-09-09T14:37:33;3.33;;;1.30;;
43008;SDS011;28634;45.454;11.106;2022-09-09T14:40:01;7.45;;;1.73;;
43008;SDS011;28634;45.454;11.106;2022-09-09T14:42:28;2.45;;;1.40;;
43008;SDS011;28634;45.454;11.106;2022-09-09T14:44:56;2.75;;;1.33;;
43008;SDS011;28634;45.454;11.106;2022-09-09T14:47:23;2.95;;;1.52;;
43008;SDS011;28634;45.454;11.106;2022-09-09T14:49:50;5.78;;;1.38;;
43008;SDS011;28634;45.454;11.106;2022-09-09T14:52:18;2.95;;;1.45;;
43008;SDS011;28634;45.454;11.106;2022-09-09T14:54:45;3.13;;;1.30;;
43008;SDS011;28634;45.454;11.106;2022-09-09T14:57:12;3.78;;;1.40;;
43008;SDS011;28634;45.454;11.106;2022-09-09T14:59:39;4.00;;;1.40;;
43008;SDS011;28634;45.454;11.106;2022-09-09T15:02:07;4.00;;;1.50;;
43008;SDS011;28634;45.454;11.106;2022-09-09T15:04:37;3.60;;;1.30;;
43008;SDS011;28634;45.454;11.106;2022-09-09T15:07:04;2.60;;;1.48;;
43008;SDS011;28634;45.454;11.106;2022-09-09T15:09:31;4.05;;;1.70;;
43008;SDS011;28634;45.454;11.106;2022-09-09T15:11:58;2.53;;;1.15;;
43008;SDS011;28634;45.454;11.106;2022-09-09T15:14:25;8.50;;;1.75;;
43008;SDS011;28634;45.454;11.106;2022-09-09T15:16:52;3.60;;;1.30;;
43008;SDS011;28634;45.454;11.106;2022-09-09T15:19:19;4.57;;;1.40;;
43008;SDS011;28634;45.454;11.106;2022-09-09T15:21:46;1.50;;;1.13;;
43008;SDS011;28634;45.454;11.106;2022-09-09T15:24:14;2.53;;;1.40;;
43008;SDS011;28634;45.454;11.106;2022-09-09T15:26:43;3.92;;;1.40;;
43008;SDS011;28634;45.454;11.106;2022-09-09T15:29:10;2.55;;;1.50;;
43008;SDS011;28634;45.454;11.106;2022-09-09T15:31:37;3.63;;;1.35;;
43008;SDS011;28634;45.454;11.106;2022-09-09T15:34:05;2.58;;;1.20;;
43008;SDS011;28634;45.454;11.106;2022-09-09T15:39:04;2.45;;;1.40;;
43008;SDS011;28634;45.454;11.106;2022-09-09T15:41:33;2.90;;;1.30;;
43008;SDS011;28634;45.454;11.106;2022-09-09T15:44:01;3.50;;;1.40;;
43008;SDS011;28634;45.454;11.106;2022-09-09T15:49:14;2.70;;;1.30;;
43008;SDS011;28634;45.454;11.106;2022-09-09T15:51:44;1.75;;;1.17;;
43008;SDS011;28634;45.454;11.106;2022-09-09T15:54:19;2.20;;;1.30;;
43008;SDS011;28634;45.454;11.106;2022-09-09T15:56:51;2.22;;;1.30;;
43008;SDS011;28634;45.454;11.106;2022-09-09T15:59:23;4.13;;;1.45;;
43008;SDS011;28634;45.454;11.106;2022-09-09T16:01:51;4.95;;;1.40;;
43008;SDS011;28634;45.454;11.106;2022-09-09T16:04:19;2.78;;;1.40;;
43008;SDS011;28634;45.454;11.106;2022-09-09T16:06:53;2.20;;;1.15;;
43008;SDS011;28634;45.454;11.106;2022-09-09T16:09:31;3.17;;;1.60;;
43008;SDS011;28634;45.454;11.106;2022-09-09T16:12:00;3.78;;;1.40;;
43008;SDS011;28634;45.454;11.106;2022-09-09T16:14:29;5.25;;;1.50;;
43008;SDS011;28634;45.454;11.106;2022-09-09T16:17:00;3.45;;;1.80;;
43008;SDS011;28634;45.454;11.106;2022-09-09T16:19:28;2.85;;;1.40;;
43008;SDS011;28634;45.454;11.106;2022-09-09T16:21:55;3.40;;;1.50;;
43008;SDS011;28634;45.454;11.106;2022-09-09T16:24:26;3.47;;;1.50;;
43008;SDS011;28634;45.454;11.106;2022-09-09T16:27:03;3.60;;;1.63;;
43008;SDS011;28634;45.454;11.106;2022-09-09T16:29:30;3.10;;;1.50;;
43008;SDS011;28634;45.454;11.106;2022-09-09T16:31:58;3.90;;;1.70;;
43008;SDS011;28634;45.454;11.106;2022-09-09T16:34:29;5.05;;;1.70;;
43008;SDS011;28634;45.454;11.106;2022-09-09T16:36:56;3.33;;;1.90;;
43008;SDS011;28634;45.454;11.106;2022-09-09T16:39:23;4.10;;;1.67;;
43008;SDS011;28634;45.454;11.106;2022-09-09T16:41:51;4.30;;;1.80;;
43008;SDS011;28634;45.454;11.106;2022-09-09T16:44:18;2.72;;;1.50;;
43008;SDS011;28634;45.454;11.106;2022-09-09T16:46:46;3.30;;;1.63;;
43008;SDS011;28634;45.454;11.106;2022-09-09T16:49:15;3.83;;;1.88;;
43008;SDS011;28634;45.454;11.106;2022-09-09T16:51:44;4.95;;;1.73;;
43008;SDS011;28634;45.454;11.106;2022-09-09T16:54:14;2.60;;;1.60;;
43008;SDS011;28634;45.454;11.106;2022-09-09T16:56:44;3.72;;;1.70;;
43008;SDS011;28634;45.454;11.106;2022-09-09T16:59:13;3.90;;;1.60;;
43008;SDS011;28634;45.454;11.106;2022-09-09T17:01:45;3.85;;;1.70;;
43008;SDS011;28634;45.454;11.106;2022-09-09T17:04:15;5.65;;;1.95;;
43008;SDS011;28634;45.454;11.106;2022-09-09T17:06:47;4.55;;;1.60;;
43008;SDS011;28634;45.454;11.106;2022-09-09T17:09:16;3.10;;;1.80;;
43008;SDS011;28634;45.454;11.106;2022-09-09T17:11:44;2.72;;;1.60;;
43008;SDS011;28634;45.454;11.106;2022-09-09T17:14:13;2.58;;;1.40;;
43008;SDS011;28634;45.454;11.106;2022-09-09T17:16:42;3.78;;;1.77;;
43008;SDS011;28634;45.454;11.106;2022-09-09T17:19:10;6.30;;;1.77;;
43008;SDS011;28634;45.454;11.106;2022-09-09T17:21:38;4.05;;;1.77;;
43008;SDS011;28634;45.454;11.106;2022-09-09T17:24:26;3.35;;;1.67;;
43008;SDS011;28634;45.454;11.106;2022-09-09T17:26:55;3.67;;;1.70;;
43008;SDS011;28634;45.454;11.106;2022-09-09T17:29:23;5.40;;;1.90;;
43008;SDS011;28634;45.454;11.106;2022-09-09T17:31:51;3.47;;;1.77;;